sensor_id;sensor_type;location;lat;lon;timestamp;temperature;humidity
7822;DHT22;3956;50.558;9.678;2023-03-09T00:02:21;6.60;99.90
7822;DHT22;3956;50.558;9.678;2023-03-09T00:04:49;6.50;99.90
7822;DHT22;3956;50.558;9.678;2023-03-09T00:07:21;6.70;99.90
7822;DHT22;3956;50.558;9.678;2023-03-09T00:09:49;6.70;99.90
7822;DHT22;3956;50.558;9.678;2023-03-09T00:12:17;6.60;99.90
7822;DHT22;3956;50.558;9.678;2023-03-09T00:14:46;6.90;99.90
7822;DHT22;3956;50.558;9.678;2023-03-09T00:17:15;6.80;99.90
7822;DHT22;3956;50.558;9.678;2023-03-09T00:19:44;6.90;99.90
7822;DHT22;3956;50.558;9.678;2023-03-09T00:22:12;6.70;99.90
7822;DHT22;3956;50.558;9.678;2023-03-09T00:24:43;6.80;99.90
7822;DHT22;3956;50.558;9.678;2023-03-09T00:27:14;6.60;99.90
7822;DHT22;3956;50.558;9.678;2023-03-09T00:29:47;6.70;99.90
7822;DHT22;3956;50.558;9.678;2023-03-09T00:32:20;6.90;99.90
7822;DHT22;3956;50.558;9.678;2023-03-09T00:34:53;6.60;99.90
7822;DHT22;3956;50.558;9.678;2023-03-09T00:37:21;6.60;99.90
7822;DHT22;3956;50.558;9.678;2023-03-09T00:39:50;6.80;99.90
7822;DHT22;3956;50.558;9.678;2023-03-09T00:42:20;6.90;99.90
7822;DHT22;3956;50.558;9.678;2023-03-09T00:44:50;6.60;99.90
7822;DHT22;3956;50.558;9.678;2023-03-09T00:47:20;7.00;99.90
7822;DHT22;3956;50.558;9.678;2023-03-09T00:49:51;7.00;99.90
7822;DHT22;3956;50.558;9.678;2023-03-09T00:52:22;6.90;99.90
7822;DHT22;3956;50.558;9.678;2023-03-09T00:54:53;6.80;99.90
7822;DHT22;3956;50.558;9.678;2023-03-09T00:57:27;7.20;99.90
7822;DHT22;3956;50.558;9.678;2023-03-09T01:00:00;6.90;99.90
7822;DHT22;3956;50.558;9.678;2023-03-09T01:02:41;7.20;99.90
7822;DHT22;3956;50.558;9.678;2023-03-09T01:05:11;7.10;99.90
7822;DHT22;3956;50.558;9.678;2023-03-09T01:07:45;7.00;99.90
7822;DHT22;3956;50.558;9.678;2023-03-09T01:10:17;7.20;99.90
7822;DHT22;3956;50.558;9.678;2023-03-09T01:12:50;7.10;99.90
7822;DHT22;3956;50.558;9.678;2023-03-09T01:15:23;7.00;99.90
7822;DHT22;3956;50.558;9.678;2023-03-09T01:18:08;6.90;99.90
7822;DHT22;3956;50.558;9.678;2023-03-09T01:20:59;7.00;99.90
7822;DHT22;3956;50.558;9.678;2023-03-09T01:23:28;7.30;99.90
7822;DHT22;3956;50.558;9.678;2023-03-09T01:25:57;6.90;99.90
7822;DHT22;3956;50.558;9.678;2023-03-09T01:28:26;7.20;99.90
7822;DHT22;3956;50.558;9.678;2023-03-09T01:30:55;7.10;99.90
7822;DHT22;3956;50.558;9.678;2023-03-09T01:33:25;7.30;99.90
7822;DHT22;3956;50.558;9.678;2023-03-09T01:35:53;7.00;99.90
7822;DHT22;3956;50.558;9.678;2023-03-09T01:38:22;7.20;99.90
7822;DHT22;3956;50.558;9.678;2023-03-09T01:40:51;6.90;99.90
7822;DHT22;3956;50.558;9.678;2023-03-09T01:43:30;6.90;99.90
7822;DHT22;3956;50.558;9.678;2023-03-09T01:46:38;6.80;99.90
7822;DHT22;3956;50.558;9.678;2023-03-09T01:49:15;7.00;99.90
7822;DHT22;3956;50.558;9.678;2023-03-09T01:51:51;7.10;99.90
7822;DHT22;3956;50.558;9.678;2023-03-09T01:54:27;7.10;99.90
7822;DHT22;3956;50.558;9.678;2023-03-09T01:57:01;7.20;99.90
7822;DHT22;3956;50.558;9.678;2023-03-09T01:59:32;6.90;99.90
7822;DHT22;3956;50.558;9.678;2023-03-09T02:02:03;7.30;99.90
7822;DHT22;3956;50.558;9.678;2023-03-09T02:04:43;7.00;99.90
7822;DHT22;3956;50.558;9.678;2023-03-09T02:07:19;7.20;99.90
7822;DHT22;3956;50.558;9.678;2023-03-09T02:10:12;7.20;99.90
7822;DHT22;3956;50.558;9.678;2023-03-09T02:12:46;7.30;99.90
7822;DHT22;3956;50.558;9.678;2023-03-09T02:15:24;7.10;99.90
7822;DHT22;3956;50.558;9.678;2023-03-09T02:17:52;7.20;99.90
7822;DHT22;3956;50.558;9.678;2023-03-09T02:20:26;7.20;99.90
7822;DHT22;3956;50.558;9.678;2023-03-09T02:22:58;7.20;99.90
7822;DHT22;3956;50.558;9.678;2023-03-09T02:25:30;7.50;99.90
7822;DHT22;3956;50.558;9.678;2023-03-09T02:28:06;7.40;99.90
7822;DHT22;3956;50.558;9.678;2023-03-09T02:30:39;7.40;99.90
7822;DHT22;3956;50.558;9.678;2023-03-09T02:33:12;7.50;99.90
7822;DHT22;3956;50.558;9.678;2023-03-09T02:35:40;7.50;99.90
7822;DHT22;3956;50.558;9.678;2023-03-09T02:38:13;7.40;99.90
7822;DHT22;3956;50.558;9.678;2023-03-09T02:40:46;7.40;99.90
7822;DHT22;3956;50.558;9.678;2023-03-09T02:43:24;7.30;99.90
7822;DHT22;3956;50.558;9.678;2023-03-09T02:45:58;7.50;99.90
7822;DHT22;3956;50.558;9.678;2023-03-09T02:48:27;7.40;99.90
7822;DHT22;3956;50.558;9.678;2023-03-09T02:50:56;7.40;99.90
7822;DHT22;3956;50.558;9.678;2023-03-09T02:53:28;7.40;99.90
7822;DHT22;3956;50.558;9.678;2023-03-09T02:56:01;7.40;99.90
7822;DHT22;3956;50.558;9.678;2023-03-09T02:58:31;7.50;99.90
7822;DHT22;3956;50.558;9.678;2023-03-09T03:00:59;7.60;99.90
7822;DHT22;3956;50.558;9.678;2023-03-09T03:03:31;7.50;99.90
7822;DHT22;3956;50.558;9.678;2023-03-09T03:06:01;7.60;99.90
7822;DHT22;3956;50.558;9.678;2023-03-09T03:08:29;7.80;99.90
7822;DHT22;3956;50.558;9.678;2023-03-09T03:11:03;7.70;99.90
7822;DHT22;3956;50.558;9.678;2023-03-09T03:13:38;7.70;99.90
7822;DHT22;3956;50.558;9.678;2023-03-09T03:16:07;7.70;99.90
7822;DHT22;3956;50.558;9.678;2023-03-09T03:18:36;7.60;99.90
7822;DHT22;3956;50.558;9.678;2023-03-09T03:21:05;7.60;99.90
7822;DHT22;3956;50.558;9.678;2023-03-09T03:23:34;7.60;99.90
7822;DHT22;3956;50.558;9.678;2023-03-09T03:26:06;7.70;99.90
7822;DHT22;3956;50.558;9.678;2023-03-09T03:28:37;7.80;99.90
7822;DHT22;3956;50.558;9.678;2023-03-09T03:31:05;7.80;99.90
7822;DHT22;3956;50.558;9.678;2023-03-09T03:33:35;7.60;99.90
7822;DHT22;3956;50.558;9.678;2023-03-09T03:36:05;7.60;99.90
7822;DHT22;3956;50.558;9.678;2023-03-09T03:38:34;7.50;99.90
7822;DHT22;3956;50.558;9.678;2023-03-09T03:41:02;7.70;99.90
7822;DHT22;3956;50.558;9.678;2023-03-09T03:43:30;7.70;99.90
7822;DHT22;3956;50.558;9.678;2023-03-09T03:46:01;7.60;99.90
7822;DHT22;3956;50.558;9.678;2023-03-09T03:48:30;7.60;99.90
7822;DHT22;3956;50.558;9.678;2023-03-09T03:51:00;7.70;99.90
7822;DHT22;3956;50.558;9.678;2023-03-09T03:53:28;7.70;99.90
7822;DHT22;3956;50.558;9.678;2023-03-09T03:55:57;7.60;99.90
7822;DHT22;3956;50.558;9.678;2023-03-09T03:58:25;7.60;99.90
7822;DHT22;3956;50.558;9.678;2023-03-09T04:00:55;7.50;99.90
7822;DHT22;3956;50.558;9.678;2023-03-09T04:03:26;7.70;99.90
7822;DHT22;3956;50.558;9.678;2023-03-09T04:05:54;7.80;99.90
7822;DHT22;3956;50.558;9.678;2023-03-09T04:08:23;7.80;99.90
7822;DHT22;3956;50.558;9.678;2023-03-09T04:10:54;7.80;99.90
7822;DHT22;3956;50.558;9.678;2023-03-09T04:13:23;7.80;99.90
7822;DHT22;3956;50.558;9.678;2023-03-09T04:15:52;7.90;99.90
7822;DHT22;3956;50.558;9.678;2023-03-09T04:18:21;7.90;99.90
7822;DHT22;3956;50.558;9.678;2023-03-09T04:21:05;7.80;99.90
7822;DHT22;3956;50.558;9.678;2023-03-09T04:23:35;7.70;99.90
7822;DHT22;3956;50.558;9.678;2023-03-09T04:26:05;7.70;99.90
7822;DHT22;3956;50.558;9.678;2023-03-09T04:28:35;7.70;99.90
7822;DHT22;3956;50.558;9.678;2023-03-09T04:31:08;7.60;99.90
7822;DHT22;3956;50.558;9.678;2023-03-09T04:33:47;7.50;99.90
7822;DHT22;3956;50.558;9.678;2023-03-09T04:36:32;7.60;99.90
7822;DHT22;3956;50.558;9.678;2023-03-09T04:39:10;7.40;99.90
7822;DHT22;3956;50.558;9.678;2023-03-09T04:41:38;7.40;99.90
7822;DHT22;3956;50.558;9.678;2023-03-09T04:44:08;7.30;99.90
7822;DHT22;3956;50.558;9.678;2023-03-09T04:46:36;7.50;99.90
7822;DHT22;3956;50.558;9.678;2023-03-09T04:49:05;7.40;99.90
7822;DHT22;3956;50.558;9.678;2023-03-09T04:51:38;7.20;99.90
7822;DHT22;3956;50.558;9.678;2023-03-09T04:54:07;7.40;99.90
7822;DHT22;3956;50.558;9.678;2023-03-09T04:56:36;7.20;99.90
7822;DHT22;3956;50.558;9.678;2023-03-09T04:59:05;7.30;99.90
7822;DHT22;3956;50.558;9.678;2023-03-09T05:01:38;7.20;99.90
7822;DHT22;3956;50.558;9.678;2023-03-09T05:04:06;7.30;99.90
7822;DHT22;3956;50.558;9.678;2023-03-09T05:06:41;7.30;99.90
7822;DHT22;3956;50.558;9.678;2023-03-09T05:09:11;7.30;99.90
7822;DHT22;3956;50.558;9.678;2023-03-09T05:11:42;7.30;99.90
7822;DHT22;3956;50.558;9.678;2023-03-09T05:14:19;7.30;99.90
7822;DHT22;3956;50.558;9.678;2023-03-09T05:16:59;7.20;99.90
7822;DHT22;3956;50.558;9.678;2023-03-09T05:19:27;7.10;99.90
7822;DHT22;3956;50.558;9.678;2023-03-09T05:21:58;7.30;99.90
7822;DHT22;3956;50.558;9.678;2023-03-09T05:24:28;7.10;99.90
7822;DHT22;3956;50.558;9.678;2023-03-09T05:27:21;7.20;99.90
7822;DHT22;3956;50.558;9.678;2023-03-09T05:30:06;7.30;99.90
7822;DHT22;3956;50.558;9.678;2023-03-09T05:32:36;7.40;99.90
7822;DHT22;3956;50.558;9.678;2023-03-09T05:35:06;7.40;99.90
7822;DHT22;3956;50.558;9.678;2023-03-09T05:37:36;7.60;99.90
7822;DHT22;3956;50.558;9.678;2023-03-09T05:40:11;7.40;99.90
7822;DHT22;3956;50.558;9.678;2023-03-09T05:42:39;7.50;99.90
7822;DHT22;3956;50.558;9.678;2023-03-09T05:45:09;7.50;99.90
7822;DHT22;3956;50.558;9.678;2023-03-09T05:47:38;7.60;99.90
7822;DHT22;3956;50.558;9.678;2023-03-09T05:50:14;7.50;99.90
7822;DHT22;3956;50.558;9.678;2023-03-09T05:52:48;7.70;99.90
7822;DHT22;3956;50.558;9.678;2023-03-09T05:55:17;7.60;99.90
7822;DHT22;3956;50.558;9.678;2023-03-09T05:57:46;7.50;99.90
7822;DHT22;3956;50.558;9.678;2023-03-09T06:00:16;7.60;99.90
7822;DHT22;3956;50.558;9.678;2023-03-09T06:02:45;7.60;99.90
7822;DHT22;3956;50.558;9.678;2023-03-09T06:05:14;7.80;99.90
7822;DHT22;3956;50.558;9.678;2023-03-09T06:07:44;7.70;99.90
7822;DHT22;3956;50.558;9.678;2023-03-09T06:10:13;7.80;99.90
7822;DHT22;3956;50.558;9.678;2023-03-09T06:12:41;7.70;99.90
7822;DHT22;3956;50.558;9.678;2023-03-09T06:15:10;7.90;99.90
7822;DHT22;3956;50.558;9.678;2023-03-09T06:17:38;7.80;99.90
7822;DHT22;3956;50.558;9.678;2023-03-09T06:20:12;7.80;99.90
7822;DHT22;3956;50.558;9.678;2023-03-09T06:23:20;7.90;99.90
7822;DHT22;3956;50.558;9.678;2023-03-09T06:25:51;7.90;99.90
7822;DHT22;3956;50.558;9.678;2023-03-09T06:28:35;7.90;99.90
7822;DHT22;3956;50.558;9.678;2023-03-09T06:31:50;7.90;99.90
7822;DHT22;3956;50.558;9.678;2023-03-09T06:34:58;7.90;99.90
7822;DHT22;3956;50.558;9.678;2023-03-09T06:37:27;8.10;99.90
7822;DHT22;3956;50.558;9.678;2023-03-09T06:40:33;8.10;99.90
7822;DHT22;3956;50.558;9.678;2023-03-09T06:43:06;8.20;99.90
7822;DHT22;3956;50.558;9.678;2023-03-09T06:45:51;8.10;99.90
7822;DHT22;3956;50.558;9.678;2023-03-09T06:48:27;8.20;99.90
7822;DHT22;3956;50.558;9.678;2023-03-09T06:51:08;8.10;99.90
7822;DHT22;3956;50.558;9.678;2023-03-09T06:53:43;8.20;99.90
7822;DHT22;3956;50.558;9.678;2023-03-09T07:00:13;8.20;99.90
7822;DHT22;3956;50.558;9.678;2023-03-09T07:02:44;8.10;99.90
7822;DHT22;3956;50.558;9.678;2023-03-09T07:05:23;8.10;99.90
7822;DHT22;3956;50.558;9.678;2023-03-09T07:08:25;8.10;99.90
7822;DHT22;3956;50.558;9.678;2023-03-09T07:11:27;8.20;99.90
7822;DHT22;3956;50.558;9.678;2023-03-09T07:14:21;8.10;99.90
7822;DHT22;3956;50.558;9.678;2023-03-09T07:16:58;8.20;99.90
7822;DHT22;3956;50.558;9.678;2023-03-09T07:19:26;8.20;99.90
7822;DHT22;3956;50.558;9.678;2023-03-09T07:21:55;8.30;99.90
7822;DHT22;3956;50.558;9.678;2023-03-09T07:24:23;8.10;99.90
7822;DHT22;3956;50.558;9.678;2023-03-09T07:26:52;8.10;99.90
7822;DHT22;3956;50.558;9.678;2023-03-09T07:29:22;8.20;99.90
7822;DHT22;3956;50.558;9.678;2023-03-09T07:31:57;8.20;99.90
7822;DHT22;3956;50.558;9.678;2023-03-09T07:34:27;8.00;99.90
7822;DHT22;3956;50.558;9.678;2023-03-09T07:36:55;8.30;99.90
7822;DHT22;3956;50.558;9.678;2023-03-09T07:39:26;8.20;99.90
7822;DHT22;3956;50.558;9.678;2023-03-09T07:41:56;8.20;99.90
7822;DHT22;3956;50.558;9.678;2023-03-09T07:44:31;8.10;99.90
7822;DHT22;3956;50.558;9.678;2023-03-09T07:47:07;8.00;99.90
7822;DHT22;3956;50.558;9.678;2023-03-09T07:49:46;8.20;99.90
7822;DHT22;3956;50.558;9.678;2023-03-09T07:52:20;8.20;99.90
7822;DHT22;3956;50.558;9.678;2023-03-09T07:54:50;8.20;99.90
7822;DHT22;3956;50.558;9.678;2023-03-09T07:57:18;8.30;99.90
7822;DHT22;3956;50.558;9.678;2023-03-09T07:59:56;8.40;99.90
7822;DHT22;3956;50.558;9.678;2023-03-09T08:03:07;8.40;99.90
7822;DHT22;3956;50.558;9.678;2023-03-09T08:06:03;8.30;99.90
7822;DHT22;3956;50.558;9.678;2023-03-09T08:08:33;8.50;99.90
7822;DHT22;3956;50.558;9.678;2023-03-09T08:11:03;8.50;99.90
7822;DHT22;3956;50.558;9.678;2023-03-09T08:13:32;8.50;99.90
7822;DHT22;3956;50.558;9.678;2023-03-09T08:16:02;8.60;99.90
7822;DHT22;3956;50.558;9.678;2023-03-09T08:18:40;8.70;99.90
7822;DHT22;3956;50.558;9.678;2023-03-09T08:21:11;8.70;99.90
7822;DHT22;3956;50.558;9.678;2023-03-09T08:23:43;8.80;99.90
7822;DHT22;3956;50.558;9.678;2023-03-09T08:26:14;8.80;99.90
7822;DHT22;3956;50.558;9.678;2023-03-09T08:28:43;8.80;99.90
7822;DHT22;3956;50.558;9.678;2023-03-09T08:31:16;8.70;99.90
7822;DHT22;3956;50.558;9.678;2023-03-09T08:33:47;8.80;99.90
7822;DHT22;3956;50.558;9.678;2023-03-09T08:36:19;8.80;99.90
7822;DHT22;3956;50.558;9.678;2023-03-09T08:38:54;8.80;99.90
7822;DHT22;3956;50.558;9.678;2023-03-09T08:41:24;8.80;99.90
7822;DHT22;3956;50.558;9.678;2023-03-09T08:43:54;8.80;99.90
7822;DHT22;3956;50.558;9.678;2023-03-09T08:46:25;8.80;99.90
7822;DHT22;3956;50.558;9.678;2023-03-09T08:48:57;8.90;99.90
7822;DHT22;3956;50.558;9.678;2023-03-09T08:51:27;8.90;99.90
7822;DHT22;3956;50.558;9.678;2023-03-09T08:54:01;8.70;99.90
7822;DHT22;3956;50.558;9.678;2023-03-09T08:56:30;8.70;99.90
7822;DHT22;3956;50.558;9.678;2023-03-09T08:58:58;8.90;99.90
7822;DHT22;3956;50.558;9.678;2023-03-09T09:01:28;8.90;99.90
7822;DHT22;3956;50.558;9.678;2023-03-09T09:03:59;8.80;99.90
7822;DHT22;3956;50.558;9.678;2023-03-09T09:06:30;8.70;99.90
7822;DHT22;3956;50.558;9.678;2023-03-09T09:12:22;8.90;99.90
7822;DHT22;3956;50.558;9.678;2023-03-09T09:14:53;9.00;99.90
7822;DHT22;3956;50.558;9.678;2023-03-09T09:17:23;9.00;99.90
7822;DHT22;3956;50.558;9.678;2023-03-09T09:19:59;9.00;99.90
7822;DHT22;3956;50.558;9.678;2023-03-09T09:22:27;9.20;99.90
7822;DHT22;3956;50.558;9.678;2023-03-09T09:25:09;9.20;99.90
7822;DHT22;3956;50.558;9.678;2023-03-09T09:27:58;9.20;99.90
7822;DHT22;3956;50.558;9.678;2023-03-09T09:31:00;9.30;99.90
7822;DHT22;3956;50.558;9.678;2023-03-09T09:33:47;9.50;99.90
7822;DHT22;3956;50.558;9.678;2023-03-09T09:37:00;9.40;99.90
7822;DHT22;3956;50.558;9.678;2023-03-09T09:39:46;9.40;99.90
7822;DHT22;3956;50.558;9.678;2023-03-09T09:42:23;9.40;99.90
7822;DHT22;3956;50.558;9.678;2023-03-09T09:44:56;9.50;99.90
7822;DHT22;3956;50.558;9.678;2023-03-09T09:47:28;9.60;99.90
7822;DHT22;3956;50.558;9.678;2023-03-09T09:50:03;9.40;99.90
7822;DHT22;3956;50.558;9.678;2023-03-09T09:52:46;9.60;99.90
7822;DHT22;3956;50.558;9.678;2023-03-09T09:55:22;9.50;99.90
7822;DHT22;3956;50.558;9.678;2023-03-09T09:57:56;9.60;99.90
7822;DHT22;3956;50.558;9.678;2023-03-09T10:00:32;9.70;99.90
7822;DHT22;3956;50.558;9.678;2023-03-09T10:03:12;9.70;99.90
7822;DHT22;3956;50.558;9.678;2023-03-09T10:05:50;9.60;99.90
7822;DHT22;3956;50.558;9.678;2023-03-09T10:08:35;9.70;99.90
7822;DHT22;3956;50.558;9.678;2023-03-09T10:11:12;9.80;99.90
7822;DHT22;3956;50.558;9.678;2023-03-09T10:13:46;9.70;99.90
7822;DHT22;3956;50.558;9.678;2023-03-09T10:16:18;9.70;99.90
7822;DHT22;3956;50.558;9.678;2023-03-09T10:18:54;9.70;99.90
7822;DHT22;3956;50.558;9.678;2023-03-09T10:21:50;9.70;99.90
7822;DHT22;3956;50.558;9.678;2023-03-09T10:24:24;9.80;99.90
7822;DHT22;3956;50.558;9.678;2023-03-09T10:26:57;9.80;99.90
7822;DHT22;3956;50.558;9.678;2023-03-09T10:29:39;9.80;99.90
7822;DHT22;3956;50.558;9.678;2023-03-09T10:32:16;9.70;99.90
7822;DHT22;3956;50.558;9.678;2023-03-09T10:34:53;9.80;99.90
7822;DHT22;3956;50.558;9.678;2023-03-09T10:37:27;9.60;99.90
7822;DHT22;3956;50.558;9.678;2023-03-09T10:40:05;9.80;99.90
7822;DHT22;3956;50.558;9.678;2023-03-09T10:42:41;9.90;99.90
7822;DHT22;3956;50.558;9.678;2023-03-09T10:45:22;10.00;99.90
7822;DHT22;3956;50.558;9.678;2023-03-09T10:47:53;9.70;99.90
7822;DHT22;3956;50.558;9.678;2023-03-09T10:50:24;9.80;99.90
7822;DHT22;3956;50.558;9.678;2023-03-09T10:52:55;9.70;99.90
7822;DHT22;3956;50.558;9.678;2023-03-09T10:55:41;9.70;99.90
7822;DHT22;3956;50.558;9.678;2023-03-09T10:58:33;9.80;99.90
7822;DHT22;3956;50.558;9.678;2023-03-09T11:01:20;9.70;99.90
7822;DHT22;3956;50.558;9.678;2023-03-09T11:03:54;9.60;99.90
7822;DHT22;3956;50.558;9.678;2023-03-09T11:06:33;9.60;99.90
7822;DHT22;3956;50.558;9.678;2023-03-09T11:09:13;9.60;99.90
7822;DHT22;3956;50.558;9.678;2023-03-09T11:11:46;9.90;99.90
7822;DHT22;3956;50.558;9.678;2023-03-09T11:14:24;9.80;99.90
7822;DHT22;3956;50.558;9.678;2023-03-09T11:16:55;9.70;99.90
7822;DHT22;3956;50.558;9.678;2023-03-09T11:19:32;9.50;99.90
7822;DHT22;3956;50.558;9.678;2023-03-09T11:22:10;9.70;99.90
7822;DHT22;3956;50.558;9.678;2023-03-09T11:24:45;9.70;99.90
7822;DHT22;3956;50.558;9.678;2023-03-09T11:27:30;9.80;99.90
7822;DHT22;3956;50.558;9.678;2023-03-09T11:30:04;9.80;99.90
7822;DHT22;3956;50.558;9.678;2023-03-09T11:32:34;9.50;99.90
7822;DHT22;3956;50.558;9.678;2023-03-09T11:35:04;9.40;99.90
7822;DHT22;3956;50.558;9.678;2023-03-09T11:37:38;9.00;99.90
7822;DHT22;3956;50.558;9.678;2023-03-09T11:40:15;9.20;99.90
7822;DHT22;3956;50.558;9.678;2023-03-09T11:46:34;9.00;99.90
7822;DHT22;3956;50.558;9.678;2023-03-09T11:49:25;8.80;99.90
7822;DHT22;3956;50.558;9.678;2023-03-09T11:52:18;8.80;99.90
7822;DHT22;3956;50.558;9.678;2023-03-09T11:54:54;8.70;99.90
7822;DHT22;3956;50.558;9.678;2023-03-09T11:57:28;8.70;99.90
7822;DHT22;3956;50.558;9.678;2023-03-09T12:00:11;8.80;99.90
7822;DHT22;3956;50.558;9.678;2023-03-09T12:03:04;9.00;99.90
7822;DHT22;3956;50.558;9.678;2023-03-09T12:06:00;9.20;99.90
7822;DHT22;3956;50.558;9.678;2023-03-09T12:08:47;9.50;99.90
7822;DHT22;3956;50.558;9.678;2023-03-09T12:11:30;9.70;99.90
7822;DHT22;3956;50.558;9.678;2023-03-09T12:14:36;9.80;1.00
7822;DHT22;3956;50.558;9.678;2023-03-09T12:17:53;10.00;99.90
7822;DHT22;3956;50.558;9.678;2023-03-09T12:21:22;10.30;1.00
7822;DHT22;3956;50.558;9.678;2023-03-09T12:24:33;10.60;1.00
7822;DHT22;3956;50.558;9.678;2023-03-09T12:27:28;10.70;99.90
7822;DHT22;3956;50.558;9.678;2023-03-09T12:30:21;10.60;1.00
7822;DHT22;3956;50.558;9.678;2023-03-09T12:32:53;10.70;1.00
7822;DHT22;3956;50.558;9.678;2023-03-09T12:38:28;10.40;28.90
7822;DHT22;3956;50.558;9.678;2023-03-09T12:40:58;10.40;99.90
7822;DHT22;3956;50.558;9.678;2023-03-09T12:43:43;9.90;1.00
7822;DHT22;3956;50.558;9.678;2023-03-09T12:47:01;9.80;1.00
7822;DHT22;3956;50.558;9.678;2023-03-09T12:49:41;9.70;1.00
7822;DHT22;3956;50.558;9.678;2023-03-09T12:52:21;10.00;99.90
7822;DHT22;3956;50.558;9.678;2023-03-09T12:55:20;9.90;1.00
7822;DHT22;3956;50.558;9.678;2023-03-09T13:01:09;9.90;99.90
7822;DHT22;3956;50.558;9.678;2023-03-09T13:03:43;9.60;99.90
7822;DHT22;3956;50.558;9.678;2023-03-09T13:06:33;9.50;99.90
7822;DHT22;3956;50.558;9.678;2023-03-09T13:09:22;9.60;99.90
7822;DHT22;3956;50.558;9.678;2023-03-09T13:12:30;9.60;99.90
7822;DHT22;3956;50.558;9.678;2023-03-09T13:15:20;9.80;99.90
7822;DHT22;3956;50.558;9.678;2023-03-09T13:18:22;9.90;99.90
7822;DHT22;3956;50.558;9.678;2023-03-09T13:21:36;10.10;99.90
7822;DHT22;3956;50.558;9.678;2023-03-09T13:24:11;10.10;99.90
7822;DHT22;3956;50.558;9.678;2023-03-09T13:26:42;10.20;99.90
7822;DHT22;3956;50.558;9.678;2023-03-09T13:29:20;10.20;99.90
7822;DHT22;3956;50.558;9.678;2023-03-09T13:32:36;10.00;99.90
7822;DHT22;3956;50.558;9.678;2023-03-09T13:35:38;9.50;99.90
7822;DHT22;3956;50.558;9.678;2023-03-09T13:38:43;9.40;99.90
7822;DHT22;3956;50.558;9.678;2023-03-09T13:41:20;9.40;99.90
7822;DHT22;3956;50.558;9.678;2023-03-09T13:47:23;9.30;99.90
7822;DHT22;3956;50.558;9.678;2023-03-09T13:49:53;9.40;99.90
7822;DHT22;3956;50.558;9.678;2023-03-09T13:52:23;9.30;99.90
7822;DHT22;3956;50.558;9.678;2023-03-09T13:54:56;9.40;99.90
7822;DHT22;3956;50.558;9.678;2023-03-09T13:57:29;9.20;99.90
7822;DHT22;3956;50.558;9.678;2023-03-09T14:00:10;9.30;99.90
7822;DHT22;3956;50.558;9.678;2023-03-09T14:02:49;9.40;99.90
7822;DHT22;3956;50.558;9.678;2023-03-09T14:05:20;9.30;99.90
7822;DHT22;3956;50.558;9.678;2023-03-09T14:08:15;9.30;99.90
7822;DHT22;3956;50.558;9.678;2023-03-09T14:10:51;9.40;99.90
7822;DHT22;3956;50.558;9.678;2023-03-09T14:13:23;9.40;99.90
7822;DHT22;3956;50.558;9.678;2023-03-09T14:16:00;9.40;99.90
7822;DHT22;3956;50.558;9.678;2023-03-09T14:18:35;9.50;99.90
7822;DHT22;3956;50.558;9.678;2023-03-09T14:21:21;9.40;99.90
7822;DHT22;3956;50.558;9.678;2023-03-09T14:24:08;9.50;99.90
7822;DHT22;3956;50.558;9.678;2023-03-09T14:27:17;9.70;99.90
7822;DHT22;3956;50.558;9.678;2023-03-09T14:30:55;9.70;99.90
7822;DHT22;3956;50.558;9.678;2023-03-09T14:34:01;9.60;99.90
7822;DHT22;3956;50.558;9.678;2023-03-09T14:37:13;9.60;99.90
7822;DHT22;3956;50.558;9.678;2023-03-09T14:40:27;9.60;99.90
7822;DHT22;3956;50.558;9.678;2023-03-09T14:43:30;9.50;99.90
7822;DHT22;3956;50.558;9.678;2023-03-09T14:46:13;9.40;99.90
7822;DHT22;3956;50.558;9.678;2023-03-09T14:48:53;9.40;99.90
7822;DHT22;3956;50.558;9.678;2023-03-09T14:51:46;9.40;99.90
7822;DHT22;3956;50.558;9.678;2023-03-09T14:55:34;9.50;99.90
7822;DHT22;3956;50.558;9.678;2023-03-09T14:58:53;9.70;99.90
7822;DHT22;3956;50.558;9.678;2023-03-09T15:02:31;9.80;99.90
7822;DHT22;3956;50.558;9.678;2023-03-09T15:05:37;9.70;99.90
7822;DHT22;3956;50.558;9.678;2023-03-09T15:08:08;9.70;99.90
7822;DHT22;3956;50.558;9.678;2023-03-09T15:10:46;10.00;99.90
7822;DHT22;3956;50.558;9.678;2023-03-09T15:13:15;9.80;99.90
7822;DHT22;3956;50.558;9.678;2023-03-09T15:15:50;9.70;99.90
7822;DHT22;3956;50.558;9.678;2023-03-09T15:18:26;9.90;99.90
7822;DHT22;3956;50.558;9.678;2023-03-09T15:21:05;10.00;99.90
7822;DHT22;3956;50.558;9.678;2023-03-09T15:23:42;10.20;99.90
7822;DHT22;3956;50.558;9.678;2023-03-09T15:26:44;10.10;99.90
7822;DHT22;3956;50.558;9.678;2023-03-09T15:29:56;10.20;99.90
7822;DHT22;3956;50.558;9.678;2023-03-09T15:32:53;10.30;99.90
7822;DHT22;3956;50.558;9.678;2023-03-09T15:35:24;10.30;99.90
7822;DHT22;3956;50.558;9.678;2023-03-09T15:37:53;10.30;99.90
7822;DHT22;3956;50.558;9.678;2023-03-09T15:40:22;10.20;99.90
7822;DHT22;3956;50.558;9.678;2023-03-09T15:42:50;10.20;99.90
7822;DHT22;3956;50.558;9.678;2023-03-09T15:45:19;10.10;99.90
7822;DHT22;3956;50.558;9.678;2023-03-09T15:47:47;10.10;99.90
7822;DHT22;3956;50.558;9.678;2023-03-09T15:50:17;10.00;99.90
7822;DHT22;3956;50.558;9.678;2023-03-09T15:52:48;10.00;99.90
7822;DHT22;3956;50.558;9.678;2023-03-09T15:55:28;9.90;99.90
7822;DHT22;3956;50.558;9.678;2023-03-09T15:58:00;9.80;99.90
7822;DHT22;3956;50.558;9.678;2023-03-09T16:00:38;9.70;99.90
7822;DHT22;3956;50.558;9.678;2023-03-09T16:03:20;9.70;99.90
7822;DHT22;3956;50.558;9.678;2023-03-09T16:05:54;9.80;99.90
7822;DHT22;3956;50.558;9.678;2023-03-09T16:08:26;9.40;99.90
7822;DHT22;3956;50.558;9.678;2023-03-09T16:11:00;9.40;99.90
7822;DHT22;3956;50.558;9.678;2023-03-09T16:13:36;9.50;99.90
7822;DHT22;3956;50.558;9.678;2023-03-09T16:16:08;9.70;99.90
7822;DHT22;3956;50.558;9.678;2023-03-09T16:18:37;9.70;1.00
7822;DHT22;3956;50.558;9.678;2023-03-09T16:21:10;9.80;1.00
7822;DHT22;3956;50.558;9.678;2023-03-09T16:23:42;9.80;99.90
7822;DHT22;3956;50.558;9.678;2023-03-09T16:26:42;9.80;1.00
7822;DHT22;3956;50.558;9.678;2023-03-09T16:29:45;9.90;1.00
7822;DHT22;3956;50.558;9.678;2023-03-09T16:32:17;9.80;1.00
7822;DHT22;3956;50.558;9.678;2023-03-09T16:34:46;10.00;99.90
7822;DHT22;3956;50.558;9.678;2023-03-09T16:37:16;10.00;99.90
7822;DHT22;3956;50.558;9.678;2023-03-09T16:39:45;10.00;99.90
7822;DHT22;3956;50.558;9.678;2023-03-09T16:42:14;10.00;99.90
7822;DHT22;3956;50.558;9.678;2023-03-09T16:44:46;9.90;99.90
7822;DHT22;3956;50.558;9.678;2023-03-09T16:47:24;10.00;61.10
7822;DHT22;3956;50.558;9.678;2023-03-09T16:53:17;10.00;35.60
7822;DHT22;3956;50.558;9.678;2023-03-09T16:56:04;10.00;43.60
7822;DHT22;3956;50.558;9.678;2023-03-09T16:58:45;10.00;1.00
7822;DHT22;3956;50.558;9.678;2023-03-09T17:01:20;9.90;1.00
7822;DHT22;3956;50.558;9.678;2023-03-09T17:03:50;9.90;21.70
7822;DHT22;3956;50.558;9.678;2023-03-09T17:09:03;9.80;3.60
7822;DHT22;3956;50.558;9.678;2023-03-09T17:12:07;9.80;19.10
7822;DHT22;3956;50.558;9.678;2023-03-09T17:14:35;9.80;7.80
7822;DHT22;3956;50.558;9.678;2023-03-09T17:17:04;9.80;1.00
7822;DHT22;3956;50.558;9.678;2023-03-09T17:19:36;9.80;1.00
7822;DHT22;3956;50.558;9.678;2023-03-09T17:22:11;9.80;1.00
7822;DHT22;3956;50.558;9.678;2023-03-09T17:24:43;9.80;1.00
7822;DHT22;3956;50.558;9.678;2023-03-09T17:27:16;9.80;1.00
7822;DHT22;3956;50.558;9.678;2023-03-09T17:29:49;9.80;1.00
7822;DHT22;3956;50.558;9.678;2023-03-09T17:32:46;9.70;1.00
7822;DHT22;3956;50.558;9.678;2023-03-09T17:35:17;9.70;1.00
7822;DHT22;3956;50.558;9.678;2023-03-09T17:37:51;9.60;1.00
7822;DHT22;3956;50.558;9.678;2023-03-09T17:51:05;9.60;1.00
7822;DHT22;3956;50.558;9.678;2023-03-09T17:54:09;9.70;1.00
7822;DHT22;3956;50.558;9.678;2023-03-09T17:56:37;9.60;1.00
7822;DHT22;3956;50.558;9.678;2023-03-09T17:59:06;9.60;1.00
7822;DHT22;3956;50.558;9.678;2023-03-09T18:01:34;9.70;1.00
7822;DHT22;3956;50.558;9.678;2023-03-09T18:04:02;9.60;1.00